Hoppet Af Brantevik — SKWL — position and weather

sailwx.info

Track history (hours):
 
Tides and Currents Weather Stations Pressure Air Temp Water Temp Dewpoint Dewpoint Depression Visibility Wind Speed Wind Dir Waves Ship Positions

Hoppet Af Brantevik

Last reported at 2016-Jul-23 10:33 UTC. Time now 2016-Jul-23 11:11 UTC.
Position N 55°31' E 014°22'.

Length 17 m; draft 2.2 m.

Type: Ship. MMSI: 265525900.

Date/timePositionNaut miles runAvg speedWind from/ knotsBaromVisibWave heightAir tempDewpointWater temp
2016-Jul-23 10:33N 55°31' E 014°22'1 0.7
2016-Jul-23 09:29N 55°31' E 014°21'1 0.9
2016-Jul-23 08:33N 55°31' E 014°22'1 0.7
2016-Jul-23 07:28N 55°31' E 014°21'0 0.0
2016-Jul-23 06:31N 55°31' E 014°21'0 0.0
2016-Jul-23 04:22N 55°31' E 014°21'0 0.0
2016-Jul-23 03:16N 55°31' E 014°21'0 0.0
2016-Jul-23 02:31N 55°31' E 014°21'0 0.0
2016-Jul-23 01:19N 55°31' E 014°21'0 0.0
2016-Jul-23 00:25N 55°31' E 014°21'0 0.0
2016-Jul-22 23:28N 55°31' E 014°21'0 0.0
2016-Jul-22 22:28N 55°31' E 014°21'0 0.0
2016-Jul-22 21:28N 55°31' E 014°21'0 0.0
2016-Jul-22 20:28N 55°31' E 014°21'0 0.0
2016-Jul-22 19:28N 55°31' E 014°21'0 0.0
2016-Jul-22 18:28N 55°31' E 014°21'0 0.0
2016-Jul-22 17:31N 55°31' E 014°21'0 0.0
2016-Jul-22 16:28N 55°31' E 014°21'0 0.0
2016-Jul-22 15:28N 55°31' E 014°21'0 0.0
2016-Jul-22 14:33N 55°31' E 014°21'2 1.7
2016-Jul-22 13:33N 55°31' E 014°24'2 1.9
2016-Jul-22 12:33N 55°30' E 014°22'1 0.6
2016-Jul-22 11:33N 55°30' E 014°21'1 0.6
2016-Jul-22 10:33N 55°31' E 014°21'0 0.0
2016-Jul-22 09:33N 55°31' E 014°21'0 0.0
2016-Jul-22 08:33N 55°31' E 014°21'0 0.0
2016-Jul-22 07:33N 55°31' E 014°21'0 0.0
2016-Jul-22 05:33N 55°31' E 014°21'0 0.0
2016-Jul-22 04:33N 55°31' E 014°21'0 0.0
2016-Jul-22 03:33N 55°31' E 014°21'0 0.0
2016-Jul-22 02:33N 55°31' E 014°21'0 0.0
2016-Jul-22 01:33N 55°31' E 014°21'0 0.0
2016-Jul-22 00:33N 55°31' E 014°21'0 0.0
2016-Jul-21 23:33N 55°31' E 014°21'0 0.0
2016-Jul-21 22:33N 55°31' E 014°21'0 0.0
2016-Jul-21 21:33N 55°31' E 014°21'0 0.0
2016-Jul-21 20:33N 55°31' E 014°21'0 0.0
2016-Jul-21 19:33N 55°31' E 014°21'0 0.0
2016-Jul-21 18:33N 55°31' E 014°21'0 0.0
2016-Jul-21 17:33N 55°31' E 014°21'6 6.2
2016-Jul-21 16:33N 55°29' E 014°31'7 6.6
2016-Jul-21 15:33N 55°27' E 014°42'7 7.2
2016-Jul-21 14:33N 55°24' E 014°53'7 7.4
2016-Jul-21 13:33N 55°21' E 015°06'4 3.6
2016-Jul-21 12:33N 55°19' E 015°11'0 0.0
2016-Jul-21 11:33N 55°19' E 015°11'0 0.0
2016-Jul-21 10:33N 55°19' E 015°11'0 0.0
2016-Jul-21 09:33N 55°19' E 015°11'2 2.2
2016-Jul-21 08:33N 55°20' E 015°08'6 6.5
2016-Jul-21 07:33N 55°23' E 014°57'7 6.6
2016-Jul-21 06:34N 55°25' E 014°46'6 5.9
2016-Jul-21 05:33N 55°27' E 014°37'7 6.8
2016-Jul-21 04:33N 55°30' E 014°26'3 2.7
2016-Jul-21 03:30N 55°31' E 014°21'0 0.0
2016-Jul-21 02:18N 55°31' E 014°21'0 0.0
2016-Jul-21 01:12N 55°31' E 014°21'0 0.0
2016-Jul-21 00:30N 55°31' E 014°21'0 0.0
2016-Jul-20 23:30N 55°31' E 014°21'0 0.0
2016-Jul-20 22:18N 55°31' E 014°21'0 0.0
2016-Jul-20 21:30N 55°31' E 014°21'0 0.0
2016-Jul-20 20:24N 55°31' E 014°21'0 0.0
2016-Jul-20 19:30N 55°31' E 014°21'0 0.0
2016-Jul-20 18:24N 55°31' E 014°21'0 0.0
2016-Jul-20 17:30N 55°31' E 014°21'0 0.0
2016-Jul-20 16:30N 55°31' E 014°21'0 0.0
2016-Jul-20 15:30N 55°31' E 014°21'0 0.0
2016-Jul-20 14:30N 55°31' E 014°21'2 1.9
2016-Jul-20 13:33N 55°31' E 014°24'2 2.0
2016-Jul-20 12:33N 55°33' E 014°22'1 1.3
2016-Jul-20 11:33N 55°32' E 014°23'1 1.1
2016-Jul-20 10:31N 55°31' E 014°21'0 0.0
2016-Jul-20 09:31N 55°31' E 014°21'0 0.0
2016-Jul-20 08:31N 55°31' E 014°21'0 0.0
2016-Jul-20 07:31N 55°31' E 014°21'0 0.0
2016-Jul-20 06:25N 55°31' E 014°21'0 0.0
2016-Jul-20 05:31N 55°31' E 014°21'0 0.0
2016-Jul-20 04:31N 55°31' E 014°21'0 0.0
2016-Jul-20 03:31N 55°31' E 014°21'0 0.0
2016-Jul-20 02:31N 55°31' E 014°21'0 0.0
2016-Jul-20 01:31N 55°31' E 014°21'0 0.0
2016-Jul-20 00:31N 55°31' E 014°21'0 0.0
2016-Jul-19 23:31N 55°31' E 014°21'0 0.0
2016-Jul-19 22:31N 55°31' E 014°21'0 0.0
2016-Jul-19 21:31N 55°31' E 014°21'0 0.0
2016-Jul-19 20:31N 55°31' E 014°21'0 0.0
2016-Jul-19 19:25N 55°31' E 014°21'0 0.0
2016-Jul-19 18:33N 55°31' E 014°21'0 0.0
2016-Jul-19 17:33N 55°31' E 014°21'2 1.6
2016-Jul-19 16:33N 55°29' E 014°20'1 1.3
2016-Jul-19 15:33N 55°30' E 014°22'1 1.0
2016-Jul-19 14:33N 55°31' E 014°21'0 0.0
2016-Jul-19 13:34N 55°31' E 014°21'2 2.2
2016-Jul-19 12:30N 55°28' E 014°21'2 1.7
2016-Jul-19 11:33N 55°30' E 014°23'2 1.5
2016-Jul-19 10:31N 55°31' E 014°21'0 0.0
2016-Jul-19 09:31N 55°31' E 014°21'0 0.0
2016-Jul-19 08:31N 55°31' E 014°21'0 0.0
2016-Jul-19 07:31N 55°31' E 014°21'0 0.0
2016-Jul-19 04:31N 55°31' E 014°21'0 0.0
2016-Jul-19 03:31N 55°31' E 014°21'0 0.0
2016-Jul-19 02:31N 55°31' E 014°21'0 0.0
2016-Jul-19 01:25N 55°31' E 014°21'0 0.0
2016-Jul-19 00:31N 55°31' E 014°21'0 0.0
2016-Jul-18 23:31N 55°31' E 014°21'0 0.0
2016-Jul-18 22:31N 55°31' E 014°21'0 0.0
2016-Jul-18 21:31N 55°31' E 014°21'0 0.0
2016-Jul-18 20:25N 55°31' E 014°21'0 0.0
2016-Jul-18 19:31N 55°31' E 014°21'0 0.0
2016-Jul-18 18:31N 55°31' E 014°21'2 1.7
2016-Jul-18 17:33N 55°32' E 014°22'3 3.4
2016-Jul-18 16:33N 55°35' E 014°25'3 3.3
2016-Jul-18 15:33N 55°32' E 014°22'2 1.6
2016-Jul-18 14:29N 55°31' E 014°21'0 0.0
2016-Jul-18 13:29N 55°31' E 014°21'0 0.0
2016-Jul-18 12:29N 55°31' E 014°21'0 0.0
2016-Jul-18 11:23N 55°31' E 014°21'0 0.0
2016-Jul-18 10:29N 55°31' E 014°21'0 0.0
2016-Jul-18 09:29N 55°31' E 014°21'0 0.0
2016-Jul-18 08:29N 55°31' E 014°21'0 0.0
2016-Jul-18 07:29N 55°31' E 014°21'0 0.0
2016-Jul-18 06:23N 55°31' E 014°21'0 0.0
2016-Jul-18 05:29N 55°31' E 014°21'0 0.0
2016-Jul-18 04:29N 55°31' E 014°21'0 0.0
2016-Jul-18 03:28N 55°31' E 014°21'0 0.0
2016-Jul-18 02:28N 55°31' E 014°21'0 0.0
2016-Jul-18 01:23N 55°31' E 014°21'0 0.0
2016-Jul-18 00:29N 55°31' E 014°21'0 0.0
2016-Jul-17 23:29N 55°31' E 014°21'0 0.0
2016-Jul-17 22:28N 55°31' E 014°21'0 0.0
2016-Jul-17 21:29N 55°31' E 014°21'0 0.0
2016-Jul-17 20:29N 55°31' E 014°21'0 0.0
2016-Jul-17 19:29N 55°31' E 014°21'0 0.0
2016-Jul-17 18:29N 55°31' E 014°21'0 0.0
2016-Jul-17 17:29N 55°31' E 014°21'0 0.0
2016-Jul-17 16:29N 55°31' E 014°21'0 0.0
2016-Jul-17 15:29N 55°31' E 014°21'0 0.0
2016-Jul-17 14:29N 55°31' E 014°21'0 0.0
2016-Jul-17 13:28N 55°31' E 014°21'0 0.0
2016-Jul-17 12:29N 55°31' E 014°21'0 0.0
2016-Jul-17 11:29N 55°31' E 014°21'0 0.0
2016-Jul-17 10:28N 55°31' E 014°21'0 0.0
2016-Jul-17 09:22N 55°31' E 014°21'0 0.0
2016-Jul-17 08:29N 55°31' E 014°21'0 0.0
2016-Jul-17 07:29N 55°31' E 014°21'0 0.0
2016-Jul-17 06:28N 55°31' E 014°21'0 0.0
2016-Jul-17 04:28N 55°31' E 014°21'0 0.0
2016-Jul-17 03:23N 55°31' E 014°21'0 0.0
2016-Jul-17 02:28N 55°31' E 014°21'0 0.0
2016-Jul-17 01:22N 55°31' E 014°21'0 0.0
2016-Jul-17 00:29N 55°31' E 014°21'0 0.0
2016-Jul-16 23:28N 55°31' E 014°21'0 0.0
2016-Jul-16 22:28N 55°31' E 014°21'0 0.0
2016-Jul-16 21:28N 55°31' E 014°21'0 0.0
2016-Jul-16 20:28N 55°31' E 014°21'0 0.0
2016-Jul-16 19:29N 55°31' E 014°21'0 0.0
2016-Jul-16 18:28N 55°31' E 014°21'0 0.0
2016-Jul-16 17:28N 55°31' E 014°21'0 0.0
2016-Jul-16 16:28N 55°31' E 014°21'0 0.0
2016-Jul-16 15:28N 55°31' E 014°21'0 0.0
2016-Jul-16 14:28N 55°31' E 014°21'0 0.0
2016-Jul-16 13:28N 55°31' E 014°21'0 0.0
2016-Jul-16 12:28N 55°31' E 014°21'0 0.0
2016-Jul-16 11:28N 55°31' E 014°21'0 0.0
2016-Jul-16 10:28N 55°31' E 014°21'0 0.0
2016-Jul-16 09:28N 55°31' E 014°21'0 0.3
2016-Jul-16 08:33N 55°31' E 014°21'7 7.0
2016-Jul-16 07:33N 55°26' E 014°30'6 6.0
2016-Jul-16 06:33N 55°22' E 014°37'8 3.7
2016-Jul-16 04:29N 55°17' E 014°48'0 0.0
2016-Jul-16 03:29N 55°17' E 014°48'0 0.0
2016-Jul-16 02:29N 55°17' E 014°48'0 0.0
2016-Jul-16 01:32N 55°17' E 014°48'0 0.0
2016-Jul-16 00:29N 55°17' E 014°48'0 0.0
2016-Jul-15 23:29N 55°17' E 014°48'0 0.0
2016-Jul-15 22:23N 55°17' E 014°48'0 0.0
2016-Jul-15 21:32N 55°17' E 014°48'0 0.0
2016-Jul-15 20:29N 55°17' E 014°48'0 0.0
2016-Jul-15 19:29N 55°17' E 014°48'0 0.0
2016-Jul-15 18:29N 55°17' E 014°48'0 0.0
2016-Jul-15 17:29N 55°17' E 014°48'0 0.0
2016-Jul-15 16:29N 55°17' E 014°48'0 0.0
2016-Jul-15 15:29N 55°17' E 014°48'0 0.0
2016-Jul-15 14:29N 55°17' E 014°48'0 0.0
2016-Jul-15 13:29N 55°17' E 014°48'0 0.0
2016-Jul-15 12:29N 55°17' E 014°48'0 0.0
2016-Jul-15 11:29N 55°17' E 014°48'0 0.0
2016-Jul-15 10:29N 55°17' E 014°48'0 0.0
2016-Jul-15 09:29N 55°17' E 014°48'0 0.0
2016-Jul-15 08:33N 55°17' E 014°48'2 1.6
2016-Jul-15 07:33N 55°17' E 014°45'0 0.0
2016-Jul-15 06:33N 55°17' E 014°45'0 0.0
2016-Jul-15 05:33N 55°17' E 014°45'0 0.0
2016-Jul-15 04:33N 55°17' E 014°45'0 0.0
2016-Jul-15 03:33N 55°17' E 014°45'0 0.4
2016-Jul-15 02:33N 55°17' E 014°45'4 4.5
2016-Jul-15 01:34N 55°14' E 014°38'5 4.9
2016-Jul-15 00:33N 55°11' E 014°32'4 4.2
2016-Jul-14 23:33N 55°08' E 014°26'6 6.1
2016-Jul-14 22:34N 55°08' E 014°15'7 6.7
2016-Jul-14 21:33N 55°08' E 014°04'7 6.5
2016-Jul-14 20:33N 55°08' E 013°52'7 6.5
2016-Jul-14 19:33N 55°06' E 013°41'  
Track history (hours):
 
Tides and Currents Weather Stations Pressure Air Temp Water Temp Dewpoint Dewpoint Depression Visibility Wind Speed Wind Dir Waves Ship Positions

Hoppet Af Brantevik

Last reported at 2016-Jul-23 10:33 UTC. Time now 2016-Jul-23 11:11 UTC.
Position N 55°31' E 014°22'.

Length 17 m; draft 2.2 m.

Type: Ship. MMSI: 265525900.

Date/timePositionNaut miles runAvg speedWind from/ knotsBaromVisibWave heightAir tempDewpointWater temp
2016-Jul-23 10:33N 55°31' E 014°22'1 0.7
2016-Jul-23 09:29N 55°31' E 014°21'1 0.9
2016-Jul-23 08:33N 55°31' E 014°22'1 0.7
2016-Jul-23 07:28N 55°31' E 014°21'0 0.0
2016-Jul-23 06:31N 55°31' E 014°21'0 0.0
2016-Jul-23 04:22N 55°31' E 014°21'0 0.0
2016-Jul-23 03:16N 55°31' E 014°21'0 0.0
2016-Jul-23 02:31N 55°31' E 014°21'0 0.0
2016-Jul-23 01:19N 55°31' E 014°21'0 0.0
2016-Jul-23 00:25N 55°31' E 014°21'0 0.0
2016-Jul-22 23:28N 55°31' E 014°21'0 0.0
2016-Jul-22 22:28N 55°31' E 014°21'0 0.0
2016-Jul-22 21:28N 55°31' E 014°21'0 0.0
2016-Jul-22 20:28N 55°31' E 014°21'0 0.0
2016-Jul-22 19:28N 55°31' E 014°21'0 0.0
2016-Jul-22 18:28N 55°31' E 014°21'0 0.0
2016-Jul-22 17:31N 55°31' E 014°21'0 0.0
2016-Jul-22 16:28N 55°31' E 014°21'0 0.0
2016-Jul-22 15:28N 55°31' E 014°21'0 0.0
2016-Jul-22 14:33N 55°31' E 014°21'2 1.7
2016-Jul-22 13:33N 55°31' E 014°24'2 1.9
2016-Jul-22 12:33N 55°30' E 014°22'1 0.6
2016-Jul-22 11:33N 55°30' E 014°21'1 0.6
2016-Jul-22 10:33N 55°31' E 014°21'0 0.0
2016-Jul-22 09:33N 55°31' E 014°21'0 0.0
2016-Jul-22 08:33N 55°31' E 014°21'0 0.0
2016-Jul-22 07:33N 55°31' E 014°21'0 0.0
2016-Jul-22 05:33N 55°31' E 014°21'0 0.0
2016-Jul-22 04:33N 55°31' E 014°21'0 0.0
2016-Jul-22 03:33N 55°31' E 014°21'0 0.0
2016-Jul-22 02:33N 55°31' E 014°21'0 0.0
2016-Jul-22 01:33N 55°31' E 014°21'0 0.0
2016-Jul-22 00:33N 55°31' E 014°21'0 0.0
2016-Jul-21 23:33N 55°31' E 014°21'0 0.0
2016-Jul-21 22:33N 55°31' E 014°21'0 0.0
2016-Jul-21 21:33N 55°31' E 014°21'0 0.0
2016-Jul-21 20:33N 55°31' E 014°21'0 0.0
2016-Jul-21 19:33N 55°31' E 014°21'0 0.0
2016-Jul-21 18:33N 55°31' E 014°21'0 0.0
2016-Jul-21 17:33N 55°31' E 014°21'6 6.2
2016-Jul-21 16:33N 55°29' E 014°31'7 6.6
2016-Jul-21 15:33N 55°27' E 014°42'7 7.2
2016-Jul-21 14:33N 55°24' E 014°53'7 7.4
2016-Jul-21 13:33N 55°21' E 015°06'4 3.6
2016-Jul-21 12:33N 55°19' E 015°11'0 0.0
2016-Jul-21 11:33N 55°19' E 015°11'0 0.0
2016-Jul-21 10:33N 55°19' E 015°11'0 0.0
2016-Jul-21 09:33N 55°19' E 015°11'2 2.2
2016-Jul-21 08:33N 55°20' E 015°08'6 6.5
2016-Jul-21 07:33N 55°23' E 014°57'7 6.6
2016-Jul-21 06:34N 55°25' E 014°46'6 5.9
2016-Jul-21 05:33N 55°27' E 014°37'7 6.8
2016-Jul-21 04:33N 55°30' E 014°26'3 2.7
2016-Jul-21 03:30N 55°31' E 014°21'0 0.0
2016-Jul-21 02:18N 55°31' E 014°21'0 0.0
2016-Jul-21 01:12N 55°31' E 014°21'0 0.0
2016-Jul-21 00:30N 55°31' E 014°21'0 0.0
2016-Jul-20 23:30N 55°31' E 014°21'0 0.0
2016-Jul-20 22:18N 55°31' E 014°21'0 0.0
2016-Jul-20 21:30N 55°31' E 014°21'0 0.0
2016-Jul-20 20:24N 55°31' E 014°21'0 0.0
2016-Jul-20 19:30N 55°31' E 014°21'0 0.0
2016-Jul-20 18:24N 55°31' E 014°21'0 0.0
2016-Jul-20 17:30N 55°31' E 014°21'0 0.0
2016-Jul-20 16:30N 55°31' E 014°21'0 0.0
2016-Jul-20 15:30N 55°31' E 014°21'0 0.0
2016-Jul-20 14:30N 55°31' E 014°21'2 1.9
2016-Jul-20 13:33N 55°31' E 014°24'2 2.0
2016-Jul-20 12:33N 55°33' E 014°22'1 1.3
2016-Jul-20 11:33N 55°32' E 014°23'1 1.1
2016-Jul-20 10:31N 55°31' E 014°21'0 0.0
2016-Jul-20 09:31N 55°31' E 014°21'0 0.0
2016-Jul-20 08:31N 55°31' E 014°21'0 0.0
2016-Jul-20 07:31N 55°31' E 014°21'0 0.0
2016-Jul-20 06:25N 55°31' E 014°21'0 0.0
2016-Jul-20 05:31N 55°31' E 014°21'0 0.0
2016-Jul-20 04:31N 55°31' E 014°21'0 0.0
2016-Jul-20 03:31N 55°31' E 014°21'0 0.0
2016-Jul-20 02:31N 55°31' E 014°21'0 0.0
2016-Jul-20 01:31N 55°31' E 014°21'0 0.0
2016-Jul-20 00:31N 55°31' E 014°21'0 0.0
2016-Jul-19 23:31N 55°31' E 014°21'0 0.0
2016-Jul-19 22:31N 55°31' E 014°21'0 0.0
2016-Jul-19 21:31N 55°31' E 014°21'0 0.0
2016-Jul-19 20:31N 55°31' E 014°21'0 0.0
2016-Jul-19 19:25N 55°31' E 014°21'0 0.0
2016-Jul-19 18:33N 55°31' E 014°21'0 0.0
2016-Jul-19 17:33N 55°31' E 014°21'2 1.6
2016-Jul-19 16:33N 55°29' E 014°20'1 1.3
2016-Jul-19 15:33N 55°30' E 014°22'1 1.0
2016-Jul-19 14:33N 55°31' E 014°21'0 0.0
2016-Jul-19 13:34N 55°31' E 014°21'2 2.2
2016-Jul-19 12:30N 55°28' E 014°21'2 1.7
2016-Jul-19 11:33N 55°30' E 014°23'2 1.5
2016-Jul-19 10:31N 55°31' E 014°21'0 0.0
2016-Jul-19 09:31N 55°31' E 014°21'0 0.0
2016-Jul-19 08:31N 55°31' E 014°21'0 0.0
2016-Jul-19 07:31N 55°31' E 014°21'0 0.0
2016-Jul-19 04:31N 55°31' E 014°21'0 0.0
2016-Jul-19 03:31N 55°31' E 014°21'0 0.0
2016-Jul-19 02:31N 55°31' E 014°21'0 0.0
2016-Jul-19 01:25N 55°31' E 014°21'0 0.0
2016-Jul-19 00:31N 55°31' E 014°21'0 0.0
2016-Jul-18 23:31N 55°31' E 014°21'0 0.0
2016-Jul-18 22:31N 55°31' E 014°21'0 0.0
2016-Jul-18 21:31N 55°31' E 014°21'0 0.0
2016-Jul-18 20:25N 55°31' E 014°21'0 0.0
2016-Jul-18 19:31N 55°31' E 014°21'0 0.0
2016-Jul-18 18:31N 55°31' E 014°21'2 1.7
2016-Jul-18 17:33N 55°32' E 014°22'3 3.4
2016-Jul-18 16:33N 55°35' E 014°25'3 3.3
2016-Jul-18 15:33N 55°32' E 014°22'2 1.6
2016-Jul-18 14:29N 55°31' E 014°21'0 0.0
2016-Jul-18 13:29N 55°31' E 014°21'0 0.0
2016-Jul-18 12:29N 55°31' E 014°21'0 0.0
2016-Jul-18 11:23N 55°31' E 014°21'0 0.0
2016-Jul-18 10:29N 55°31' E 014°21'0 0.0
2016-Jul-18 09:29N 55°31' E 014°21'0 0.0
2016-Jul-18 08:29N 55°31' E 014°21'0 0.0
2016-Jul-18 07:29N 55°31' E 014°21'0 0.0
2016-Jul-18 06:23N 55°31' E 014°21'0 0.0
2016-Jul-18 05:29N 55°31' E 014°21'0 0.0
2016-Jul-18 04:29N 55°31' E 014°21'0 0.0
2016-Jul-18 03:28N 55°31' E 014°21'0 0.0
2016-Jul-18 02:28N 55°31' E 014°21'0 0.0
2016-Jul-18 01:23N 55°31' E 014°21'0 0.0
2016-Jul-18 00:29N 55°31' E 014°21'0 0.0
2016-Jul-17 23:29N 55°31' E 014°21'0 0.0
2016-Jul-17 22:28N 55°31' E 014°21'0 0.0
2016-Jul-17 21:29N 55°31' E 014°21'0 0.0
2016-Jul-17 20:29N 55°31' E 014°21'0 0.0
2016-Jul-17 19:29N 55°31' E 014°21'0 0.0
2016-Jul-17 18:29N 55°31' E 014°21'0 0.0
2016-Jul-17 17:29N 55°31' E 014°21'0 0.0
2016-Jul-17 16:29N 55°31' E 014°21'0 0.0
2016-Jul-17 15:29N 55°31' E 014°21'0 0.0
2016-Jul-17 14:29N 55°31' E 014°21'0 0.0
2016-Jul-17 13:28N 55°31' E 014°21'0 0.0
2016-Jul-17 12:29N 55°31' E 014°21'0 0.0
2016-Jul-17 11:29N 55°31' E 014°21'0 0.0
2016-Jul-17 10:28N 55°31' E 014°21'0 0.0
2016-Jul-17 09:22N 55°31' E 014°21'0 0.0
2016-Jul-17 08:29N 55°31' E 014°21'0 0.0
2016-Jul-17 07:29N 55°31' E 014°21'0 0.0
2016-Jul-17 06:28N 55°31' E 014°21'0 0.0
2016-Jul-17 04:28N 55°31' E 014°21'0 0.0
2016-Jul-17 03:23N 55°31' E 014°21'0 0.0
2016-Jul-17 02:28N 55°31' E 014°21'0 0.0
2016-Jul-17 01:22N 55°31' E 014°21'0 0.0
2016-Jul-17 00:29N 55°31' E 014°21'0 0.0
2016-Jul-16 23:28N 55°31' E 014°21'0 0.0
2016-Jul-16 22:28N 55°31' E 014°21'0 0.0
2016-Jul-16 21:28N 55°31' E 014°21'0 0.0
2016-Jul-16 20:28N 55°31' E 014°21'0 0.0
2016-Jul-16 19:29N 55°31' E 014°21'0 0.0
2016-Jul-16 18:28N 55°31' E 014°21'0 0.0
2016-Jul-16 17:28N 55°31' E 014°21'0 0.0
2016-Jul-16 16:28N 55°31' E 014°21'0 0.0
2016-Jul-16 15:28N 55°31' E 014°21'0 0.0
2016-Jul-16 14:28N 55°31' E 014°21'0 0.0
2016-Jul-16 13:28N 55°31' E 014°21'0 0.0
2016-Jul-16 12:28N 55°31' E 014°21'0 0.0
2016-Jul-16 11:28N 55°31' E 014°21'0 0.0
2016-Jul-16 10:28N 55°31' E 014°21'0 0.0
2016-Jul-16 09:28N 55°31' E 014°21'0 0.3
2016-Jul-16 08:33N 55°31' E 014°21'7 7.0
2016-Jul-16 07:33N 55°26' E 014°30'6 6.0
2016-Jul-16 06:33N 55°22' E 014°37'8 3.7
2016-Jul-16 04:29N 55°17' E 014°48'0 0.0
2016-Jul-16 03:29N 55°17' E 014°48'0 0.0
2016-Jul-16 02:29N 55°17' E 014°48'0 0.0
2016-Jul-16 01:32N 55°17' E 014°48'0 0.0
2016-Jul-16 00:29N 55°17' E 014°48'0 0.0
2016-Jul-15 23:29N 55°17' E 014°48'0 0.0
2016-Jul-15 22:23N 55°17' E 014°48'0 0.0
2016-Jul-15 21:32N 55°17' E 014°48'0 0.0
2016-Jul-15 20:29N 55°17' E 014°48'0 0.0
2016-Jul-15 19:29N 55°17' E 014°48'0 0.0
2016-Jul-15 18:29N 55°17' E 014°48'0 0.0
2016-Jul-15 17:29N 55°17' E 014°48'0 0.0
2016-Jul-15 16:29N 55°17' E 014°48'0 0.0
2016-Jul-15 15:29N 55°17' E 014°48'0 0.0
2016-Jul-15 14:29N 55°17' E 014°48'0 0.0
2016-Jul-15 13:29N 55°17' E 014°48'0 0.0
2016-Jul-15 12:29N 55°17' E 014°48'0 0.0
2016-Jul-15 11:29N 55°17' E 014°48'0 0.0
2016-Jul-15 10:29N 55°17' E 014°48'0 0.0
2016-Jul-15 09:29N 55°17' E 014°48'0 0.0
2016-Jul-15 08:33N 55°17' E 014°48'2 1.6
2016-Jul-15 07:33N 55°17' E 014°45'0 0.0
2016-Jul-15 06:33N 55°17' E 014°45'0 0.0
2016-Jul-15 05:33N 55°17' E 014°45'0 0.0
2016-Jul-15 04:33N 55°17' E 014°45'0 0.0
2016-Jul-15 03:33N 55°17' E 014°45'0 0.4
2016-Jul-15 02:33N 55°17' E 014°45'4 4.5
2016-Jul-15 01:34N 55°14' E 014°38'5 4.9
2016-Jul-15 00:33N 55°11' E 014°32'4 4.2
2016-Jul-14 23:33N 55°08' E 014°26'6 6.1
2016-Jul-14 22:34N 55°08' E 014°15'7 6.7
2016-Jul-14 21:33N 55°08' E 014°04'7 6.5
2016-Jul-14 20:33N 55°08' E 013°52'7 6.5
2016-Jul-14 19:33N 55°06' E 013°41'  

Dump ship's entire track history